sensor_id;sensor_type;location;lat;lon;timestamp;temperature;humidity
7044;DHT22;57890;52.36301240;9.76001620;2022-12-29T00:01:24;10.60;99.90
7044;DHT22;57890;52.36301240;9.76001620;2022-12-29T00:03:51;10.60;99.90
7044;DHT22;57890;52.36301240;9.76001620;2022-12-29T00:06:18;10.70;99.90
7044;DHT22;57890;52.36301240;9.76001620;2022-12-29T00:08:45;10.70;99.90
7044;DHT22;57890;52.36301240;9.76001620;2022-12-29T00:11:14;10.70;99.90
7044;DHT22;57890;52.36301240;9.76001620;2022-12-29T00:13:41;10.70;99.90
7044;DHT22;57890;52.36301240;9.76001620;2022-12-29T00:16:26;10.70;99.90
7044;DHT22;57890;52.36301240;9.76001620;2022-12-29T00:18:53;10.80;99.90
7044;DHT22;57890;52.36301240;9.76001620;2022-12-29T00:21:22;10.80;99.90
7044;DHT22;57890;52.36301240;9.76001620;2022-12-29T00:24:14;10.80;99.90
7044;DHT22;57890;52.36301240;9.76001620;2022-12-29T00:27:10;10.80;99.90
7044;DHT22;57890;52.36301240;9.76001620;2022-12-29T00:29:54;10.80;99.90
7044;DHT22;57890;52.36301240;9.76001620;2022-12-29T00:32:39;10.80;99.90
7044;DHT22;57890;52.36301240;9.76001620;2022-12-29T00:35:28;10.80;99.90
7044;DHT22;57890;52.36301240;9.76001620;2022-12-29T00:37:57;10.80;99.90
7044;DHT22;57890;52.36301240;9.76001620;2022-12-29T00:40:43;10.80;99.90
7044;DHT22;57890;52.36301240;9.76001620;2022-12-29T00:43:29;10.90;99.90
7044;DHT22;57890;52.36301240;9.76001620;2022-12-29T00:46:14;10.90;99.90
7044;DHT22;57890;52.36301240;9.76001620;2022-12-29T00:48:40;10.90;99.90
7044;DHT22;57890;52.36301240;9.76001620;2022-12-29T00:51:25;10.90;99.90
7044;DHT22;57890;52.36301240;9.76001620;2022-12-29T00:53:52;10.90;99.90
7044;DHT22;57890;52.36301240;9.76001620;2022-12-29T00:56:19;10.90;99.90
7044;DHT22;57890;52.36301240;9.76001620;2022-12-29T00:58:47;10.90;99.90
7044;DHT22;57890;52.36301240;9.76001620;2022-12-29T01:01:14;10.90;99.90
7044;DHT22;57890;52.36301240;9.76001620;2022-12-29T01:03:41;10.90;99.90
7044;DHT22;57890;52.36301240;9.76001620;2022-12-29T01:06:09;11.00;99.90
7044;DHT22;57890;52.36301240;9.76001620;2022-12-29T01:08:37;11.00;99.90
7044;DHT22;57890;52.36301240;9.76001620;2022-12-29T01:11:05;10.90;99.90
7044;DHT22;57890;52.36301240;9.76001620;2022-12-29T01:13:32;10.90;99.90
7044;DHT22;57890;52.36301240;9.76001620;2022-12-29T01:16:01;11.00;99.90
7044;DHT22;57890;52.36301240;9.76001620;2022-12-29T01:18:28;11.00;99.90
7044;DHT22;57890;52.36301240;9.76001620;2022-12-29T01:20:59;11.00;99.90
7044;DHT22;57890;52.36301240;9.76001620;2022-12-29T01:23:27;11.00;99.90
7044;DHT22;57890;52.36301240;9.76001620;2022-12-29T01:25:54;11.00;99.90
7044;DHT22;57890;52.36301240;9.76001620;2022-12-29T01:28:21;11.00;99.90
7044;DHT22;57890;52.36301240;9.76001620;2022-12-29T01:30:48;11.00;99.90
7044;DHT22;57890;52.36301240;9.76001620;2022-12-29T01:33:16;11.00;99.90
7044;DHT22;57890;52.36301240;9.76001620;2022-12-29T01:35:43;11.00;99.90
7044;DHT22;57890;52.36301240;9.76001620;2022-12-29T01:38:10;11.00;99.90
7044;DHT22;57890;52.36301240;9.76001620;2022-12-29T01:40:44;11.00;99.90
7044;DHT22;57890;52.36301240;9.76001620;2022-12-29T01:43:13;11.10;99.90
7044;DHT22;57890;52.36301240;9.76001620;2022-12-29T01:45:44;11.10;99.90
7044;DHT22;57890;52.36301240;9.76001620;2022-12-29T01:48:13;11.10;99.90
7044;DHT22;57890;52.36301240;9.76001620;2022-12-29T01:50:46;11.10;99.90
7044;DHT22;57890;52.36301240;9.76001620;2022-12-29T01:53:21;11.10;99.90
7044;DHT22;57890;52.36301240;9.76001620;2022-12-29T01:55:53;11.10;99.90
7044;DHT22;57890;52.36301240;9.76001620;2022-12-29T01:58:24;11.10;99.90
7044;DHT22;57890;52.36301240;9.76001620;2022-12-29T02:00:54;11.10;99.90
7044;DHT22;57890;52.36301240;9.76001620;2022-12-29T02:03:22;11.10;99.90
7044;DHT22;57890;52.36301240;9.76001620;2022-12-29T02:05:56;11.10;99.90
7044;DHT22;57890;52.36301240;9.76001620;2022-12-29T02:08:26;11.10;99.90
7044;DHT22;57890;52.36301240;9.76001620;2022-12-29T02:10:55;11.10;99.90
7044;DHT22;57890;52.36301240;9.76001620;2022-12-29T02:13:24;11.00;99.90
7044;DHT22;57890;52.36301240;9.76001620;2022-12-29T02:16:09;11.10;99.90
7044;DHT22;57890;52.36301240;9.76001620;2022-12-29T02:18:45;11.00;99.90
7044;DHT22;57890;52.36301240;9.76001620;2022-12-29T02:21:50;11.00;99.90
7044;DHT22;57890;52.36301240;9.76001620;2022-12-29T02:24:35;11.00;99.90
7044;DHT22;57890;52.36301240;9.76001620;2022-12-29T02:27:23;11.00;99.90
7044;DHT22;57890;52.36301240;9.76001620;2022-12-29T02:30:05;11.10;99.90
7044;DHT22;57890;52.36301240;9.76001620;2022-12-29T02:32:38;11.10;99.90
7044;DHT22;57890;52.36301240;9.76001620;2022-12-29T02:35:13;11.10;99.90
7044;DHT22;57890;52.36301240;9.76001620;2022-12-29T02:37:50;11.10;99.90
7044;DHT22;57890;52.36301240;9.76001620;2022-12-29T02:40:29;11.10;99.90
7044;DHT22;57890;52.36301240;9.76001620;2022-12-29T02:43:01;11.10;99.90
7044;DHT22;57890;52.36301240;9.76001620;2022-12-29T02:45:35;11.20;99.90
7044;DHT22;57890;52.36301240;9.76001620;2022-12-29T02:48:10;11.20;99.90
7044;DHT22;57890;52.36301240;9.76001620;2022-12-29T02:50:44;11.20;99.90
7044;DHT22;57890;52.36301240;9.76001620;2022-12-29T02:53:16;11.20;99.90
7044;DHT22;57890;52.36301240;9.76001620;2022-12-29T02:56:04;11.20;99.90
7044;DHT22;57890;52.36301240;9.76001620;2022-12-29T02:58:30;11.20;99.90
7044;DHT22;57890;52.36301240;9.76001620;2022-12-29T03:01:08;11.30;99.90
7044;DHT22;57890;52.36301240;9.76001620;2022-12-29T03:03:47;11.30;99.90
7044;DHT22;57890;52.36301240;9.76001620;2022-12-29T03:06:26;11.30;99.90
7044;DHT22;57890;52.36301240;9.76001620;2022-12-29T03:09:05;11.30;99.90
7044;DHT22;57890;52.36301240;9.76001620;2022-12-29T03:11:41;11.30;99.90
7044;DHT22;57890;52.36301240;9.76001620;2022-12-29T03:14:33;11.40;99.90
7044;DHT22;57890;52.36301240;9.76001620;2022-12-29T03:17:24;11.40;99.90
7044;DHT22;57890;52.36301240;9.76001620;2022-12-29T03:20:01;11.40;99.90
7044;DHT22;57890;52.36301240;9.76001620;2022-12-29T03:22:32;11.40;99.90
7044;DHT22;57890;52.36301240;9.76001620;2022-12-29T03:25:11;11.40;99.90
7044;DHT22;57890;52.36301240;9.76001620;2022-12-29T03:27:43;11.40;99.90
7044;DHT22;57890;52.36301240;9.76001620;2022-12-29T03:30:13;11.40;99.90
7044;DHT22;57890;52.36301240;9.76001620;2022-12-29T03:32:42;11.40;99.90
7044;DHT22;57890;52.36301240;9.76001620;2022-12-29T03:35:16;11.50;99.90
7044;DHT22;57890;52.36301240;9.76001620;2022-12-29T03:37:51;11.50;99.90
7044;DHT22;57890;52.36301240;9.76001620;2022-12-29T03:40:21;11.50;99.90
7044;DHT22;57890;52.36301240;9.76001620;2022-12-29T03:42:49;11.50;99.90
7044;DHT22;57890;52.36301240;9.76001620;2022-12-29T03:45:17;11.50;99.90
7044;DHT22;57890;52.36301240;9.76001620;2022-12-29T03:47:44;11.50;99.90
7044;DHT22;57890;52.36301240;9.76001620;2022-12-29T03:50:13;11.50;99.90
7044;DHT22;57890;52.36301240;9.76001620;2022-12-29T03:52:41;11.60;99.90
7044;DHT22;57890;52.36301240;9.76001620;2022-12-29T03:55:09;11.60;99.90
7044;DHT22;57890;52.36301240;9.76001620;2022-12-29T03:57:38;11.60;99.90
7044;DHT22;57890;52.36301240;9.76001620;2022-12-29T04:00:08;11.60;99.90
7044;DHT22;57890;52.36301240;9.76001620;2022-12-29T04:02:45;11.60;99.90
7044;DHT22;57890;52.36301240;9.76001620;2022-12-29T04:05:19;11.60;99.90
7044;DHT22;57890;52.36301240;9.76001620;2022-12-29T04:07:47;11.60;99.90
7044;DHT22;57890;52.36301240;9.76001620;2022-12-29T04:10:14;11.60;99.90
7044;DHT22;57890;52.36301240;9.76001620;2022-12-29T04:12:41;11.60;99.90
7044;DHT22;57890;52.36301240;9.76001620;2022-12-29T04:15:09;11.60;99.90
7044;DHT22;57890;52.36301240;9.76001620;2022-12-29T04:17:36;11.60;99.90
7044;DHT22;57890;52.36301240;9.76001620;2022-12-29T04:20:04;11.70;99.90
7044;DHT22;57890;52.36301240;9.76001620;2022-12-29T04:22:59;11.70;99.90
7044;DHT22;57890;52.36301240;9.76001620;2022-12-29T04:25:26;11.70;99.90
7044;DHT22;57890;52.36301240;9.76001620;2022-12-29T04:27:53;11.70;99.90
7044;DHT22;57890;52.36301240;9.76001620;2022-12-29T04:30:39;11.70;99.90
7044;DHT22;57890;52.36301240;9.76001620;2022-12-29T04:33:15;11.80;99.90
7044;DHT22;57890;52.36301240;9.76001620;2022-12-29T04:35:43;11.80;99.90
7044;DHT22;57890;52.36301240;9.76001620;2022-12-29T04:38:12;11.80;99.90
7044;DHT22;57890;52.36301240;9.76001620;2022-12-29T04:40:40;11.80;99.90
7044;DHT22;57890;52.36301240;9.76001620;2022-12-29T04:43:09;11.80;99.90
7044;DHT22;57890;52.36301240;9.76001620;2022-12-29T04:45:53;11.80;99.90
7044;DHT22;57890;52.36301240;9.76001620;2022-12-29T04:48:26;11.90;99.90
7044;DHT22;57890;52.36301240;9.76001620;2022-12-29T04:51:12;11.90;99.90
7044;DHT22;57890;52.36301240;9.76001620;2022-12-29T04:53:40;11.90;99.90
7044;DHT22;57890;52.36301240;9.76001620;2022-12-29T04:56:07;11.90;99.90
7044;DHT22;57890;52.36301240;9.76001620;2022-12-29T04:58:35;11.90;99.90
7044;DHT22;57890;52.36301240;9.76001620;2022-12-29T05:01:02;11.90;99.90
7044;DHT22;57890;52.36301240;9.76001620;2022-12-29T05:03:30;11.90;99.90
7044;DHT22;57890;52.36301240;9.76001620;2022-12-29T05:05:57;12.00;99.90
7044;DHT22;57890;52.36301240;9.76001620;2022-12-29T05:08:24;12.00;99.90
7044;DHT22;57890;52.36301240;9.76001620;2022-12-29T05:10:53;12.00;99.90
7044;DHT22;57890;52.36301240;9.76001620;2022-12-29T05:13:20;12.00;99.90
7044;DHT22;57890;52.36301240;9.76001620;2022-12-29T05:15:49;12.00;99.90
7044;DHT22;57890;52.36301240;9.76001620;2022-12-29T05:18:17;12.00;99.90
7044;DHT22;57890;52.36301240;9.76001620;2022-12-29T05:20:46;12.00;99.90
7044;DHT22;57890;52.36301240;9.76001620;2022-12-29T05:23:14;12.10;99.90
7044;DHT22;57890;52.36301240;9.76001620;2022-12-29T05:25:43;12.10;99.90
7044;DHT22;57890;52.36301240;9.76001620;2022-12-29T05:28:21;12.10;99.90
7044;DHT22;57890;52.36301240;9.76001620;2022-12-29T05:30:53;12.10;99.90
7044;DHT22;57890;52.36301240;9.76001620;2022-12-29T05:33:20;12.10;99.90
7044;DHT22;57890;52.36301240;9.76001620;2022-12-29T05:35:49;12.10;99.90
7044;DHT22;57890;52.36301240;9.76001620;2022-12-29T05:38:17;12.10;99.90
7044;DHT22;57890;52.36301240;9.76001620;2022-12-29T05:40:44;12.10;99.90
7044;DHT22;57890;52.36301240;9.76001620;2022-12-29T05:43:30;12.10;99.90
7044;DHT22;57890;52.36301240;9.76001620;2022-12-29T05:46:16;12.10;99.90
7044;DHT22;57890;52.36301240;9.76001620;2022-12-29T05:48:56;12.10;99.90
7044;DHT22;57890;52.36301240;9.76001620;2022-12-29T05:51:49;12.10;99.90
7044;DHT22;57890;52.36301240;9.76001620;2022-12-29T05:54:16;12.10;99.90
7044;DHT22;57890;52.36301240;9.76001620;2022-12-29T05:56:43;12.10;99.90
7044;DHT22;57890;52.36301240;9.76001620;2022-12-29T05:59:12;12.10;99.90
7044;DHT22;57890;52.36301240;9.76001620;2022-12-29T06:01:39;12.20;99.90
7044;DHT22;57890;52.36301240;9.76001620;2022-12-29T06:04:07;12.20;99.90
7044;DHT22;57890;52.36301240;9.76001620;2022-12-29T06:06:34;12.10;99.90
7044;DHT22;57890;52.36301240;9.76001620;2022-12-29T06:09:02;12.10;99.90
7044;DHT22;57890;52.36301240;9.76001620;2022-12-29T06:11:29;12.10;99.90
7044;DHT22;57890;52.36301240;9.76001620;2022-12-29T06:13:58;12.20;99.90
7044;DHT22;57890;52.36301240;9.76001620;2022-12-29T06:16:26;12.20;99.90
7044;DHT22;57890;52.36301240;9.76001620;2022-12-29T06:18:56;12.20;99.90
7044;DHT22;57890;52.36301240;9.76001620;2022-12-29T06:21:23;12.20;99.90
7044;DHT22;57890;52.36301240;9.76001620;2022-12-29T06:23:50;12.20;99.90
7044;DHT22;57890;52.36301240;9.76001620;2022-12-29T06:26:17;12.20;99.90
7044;DHT22;57890;52.36301240;9.76001620;2022-12-29T06:28:47;12.20;99.90
7044;DHT22;57890;52.36301240;9.76001620;2022-12-29T06:31:14;12.10;99.90
7044;DHT22;57890;52.36301240;9.76001620;2022-12-29T06:33:42;12.10;99.90
7044;DHT22;57890;52.36301240;9.76001620;2022-12-29T06:36:09;12.10;99.90
7044;DHT22;57890;52.36301240;9.76001620;2022-12-29T06:38:36;12.00;99.90
7044;DHT22;57890;52.36301240;9.76001620;2022-12-29T06:41:04;12.00;99.90
7044;DHT22;57890;52.36301240;9.76001620;2022-12-29T06:43:49;12.00;99.90
7044;DHT22;57890;52.36301240;9.76001620;2022-12-29T06:46:44;12.00;99.90
7044;DHT22;57890;52.36301240;9.76001620;2022-12-29T06:49:12;12.00;99.90
7044;DHT22;57890;52.36301240;9.76001620;2022-12-29T06:51:39;12.00;99.90
7044;DHT22;57890;52.36301240;9.76001620;2022-12-29T06:54:06;12.00;99.90
7044;DHT22;57890;52.36301240;9.76001620;2022-12-29T06:56:33;12.00;99.90
7044;DHT22;57890;52.36301240;9.76001620;2022-12-29T06:58:59;12.00;99.90
7044;DHT22;57890;52.36301240;9.76001620;2022-12-29T07:01:26;12.00;99.90
7044;DHT22;57890;52.36301240;9.76001620;2022-12-29T07:03:53;12.00;99.90
7044;DHT22;57890;52.36301240;9.76001620;2022-12-29T07:06:21;12.00;99.90
7044;DHT22;57890;52.36301240;9.76001620;2022-12-29T07:08:48;12.00;99.90
7044;DHT22;57890;52.36301240;9.76001620;2022-12-29T07:11:15;12.00;99.90
7044;DHT22;57890;52.36301240;9.76001620;2022-12-29T07:13:42;12.00;99.90
7044;DHT22;57890;52.36301240;9.76001620;2022-12-29T07:16:09;12.00;99.90
7044;DHT22;57890;52.36301240;9.76001620;2022-12-29T07:18:36;12.00;99.90
7044;DHT22;57890;52.36301240;9.76001620;2022-12-29T07:21:04;12.00;99.90
7044;DHT22;57890;52.36301240;9.76001620;2022-12-29T07:23:32;12.00;99.90
7044;DHT22;57890;52.36301240;9.76001620;2022-12-29T07:26:00;12.00;99.90
7044;DHT22;57890;52.36301240;9.76001620;2022-12-29T07:28:27;12.00;99.90
7044;DHT22;57890;52.36301240;9.76001620;2022-12-29T07:30:54;12.00;99.90
7044;DHT22;57890;52.36301240;9.76001620;2022-12-29T07:33:21;12.00;99.90
7044;DHT22;57890;52.36301240;9.76001620;2022-12-29T07:35:48;12.00;99.90
7044;DHT22;57890;52.36301240;9.76001620;2022-12-29T07:38:15;11.90;99.90
7044;DHT22;57890;52.36301240;9.76001620;2022-12-29T07:40:44;11.90;99.90
7044;DHT22;57890;52.36301240;9.76001620;2022-12-29T07:43:10;11.80;99.90
7044;DHT22;57890;52.36301240;9.76001620;2022-12-29T07:45:50;11.80;99.90
7044;DHT22;57890;52.36301240;9.76001620;2022-12-29T07:48:17;11.70;99.90
7044;DHT22;57890;52.36301240;9.76001620;2022-12-29T07:50:44;11.70;99.90
7044;DHT22;57890;52.36301240;9.76001620;2022-12-29T07:53:11;11.70;99.90
7044;DHT22;57890;52.36301240;9.76001620;2022-12-29T07:55:38;11.70;99.90
7044;DHT22;57890;52.36301240;9.76001620;2022-12-29T07:58:07;11.70;99.90
7044;DHT22;57890;52.36301240;9.76001620;2022-12-29T08:00:34;11.70;99.90
7044;DHT22;57890;52.36301240;9.76001620;2022-12-29T08:03:01;11.70;99.90
7044;DHT22;57890;52.36301240;9.76001620;2022-12-29T08:05:28;11.60;99.90
7044;DHT22;57890;52.36301240;9.76001620;2022-12-29T08:07:55;11.60;99.90
7044;DHT22;57890;52.36301240;9.76001620;2022-12-29T08:10:22;11.60;99.90
7044;DHT22;57890;52.36301240;9.76001620;2022-12-29T08:12:49;11.60;99.90
7044;DHT22;57890;52.36301240;9.76001620;2022-12-29T08:15:17;11.60;99.90
7044;DHT22;57890;52.36301240;9.76001620;2022-12-29T08:17:44;11.60;99.90
7044;DHT22;57890;52.36301240;9.76001620;2022-12-29T08:20:11;11.60;99.90
7044;DHT22;57890;52.36301240;9.76001620;2022-12-29T08:22:38;11.60;99.90
7044;DHT22;57890;52.36301240;9.76001620;2022-12-29T08:25:05;11.60;99.90
7044;DHT22;57890;52.36301240;9.76001620;2022-12-29T08:27:32;11.60;99.90
7044;DHT22;57890;52.36301240;9.76001620;2022-12-29T08:29:59;11.60;99.90
7044;DHT22;57890;52.36301240;9.76001620;2022-12-29T08:32:28;11.60;99.90
7044;DHT22;57890;52.36301240;9.76001620;2022-12-29T08:34:55;11.60;99.90
7044;DHT22;57890;52.36301240;9.76001620;2022-12-29T08:37:22;11.60;99.90
7044;DHT22;57890;52.36301240;9.76001620;2022-12-29T08:39:49;11.60;99.90
7044;DHT22;57890;52.36301240;9.76001620;2022-12-29T08:42:16;11.60;99.90
7044;DHT22;57890;52.36301240;9.76001620;2022-12-29T08:44:42;11.60;99.90
7044;DHT22;57890;52.36301240;9.76001620;2022-12-29T08:47:09;11.60;99.90
7044;DHT22;57890;52.36301240;9.76001620;2022-12-29T08:49:38;11.60;99.90
7044;DHT22;57890;52.36301240;9.76001620;2022-12-29T08:52:05;11.60;99.90
7044;DHT22;57890;52.36301240;9.76001620;2022-12-29T08:54:32;11.60;99.90
7044;DHT22;57890;52.36301240;9.76001620;2022-12-29T08:56:59;11.60;99.90
7044;DHT22;57890;52.36301240;9.76001620;2022-12-29T08:59:33;11.60;99.90
7044;DHT22;57890;52.36301240;9.76001620;2022-12-29T09:02:02;11.60;99.90
7044;DHT22;57890;52.36301240;9.76001620;2022-12-29T09:04:28;11.70;99.90
7044;DHT22;57890;52.36301240;9.76001620;2022-12-29T09:06:57;11.70;99.90
7044;DHT22;57890;52.36301240;9.76001620;2022-12-29T09:09:23;11.70;99.90
7044;DHT22;57890;52.36301240;9.76001620;2022-12-29T09:11:50;11.70;99.90
7044;DHT22;57890;52.36301240;9.76001620;2022-12-29T09:14:17;11.70;99.90
7044;DHT22;57890;52.36301240;9.76001620;2022-12-29T09:16:44;11.70;99.90
7044;DHT22;57890;52.36301240;9.76001620;2022-12-29T09:19:30;11.70;99.90
7044;DHT22;57890;52.36301240;9.76001620;2022-12-29T09:21:58;11.80;99.90
7044;DHT22;57890;52.36301240;9.76001620;2022-12-29T09:24:25;11.80;99.90
7044;DHT22;57890;52.36301240;9.76001620;2022-12-29T09:26:52;11.80;99.90
7044;DHT22;57890;52.36301240;9.76001620;2022-12-29T09:29:19;11.80;99.90
7044;DHT22;57890;52.36301240;9.76001620;2022-12-29T09:31:46;11.80;99.90
7044;DHT22;57890;52.36301240;9.76001620;2022-12-29T09:34:12;11.80;99.90
7044;DHT22;57890;52.36301240;9.76001620;2022-12-29T09:36:39;11.80;99.90
7044;DHT22;57890;52.36301240;9.76001620;2022-12-29T09:39:07;11.80;99.90
7044;DHT22;57890;52.36301240;9.76001620;2022-12-29T09:41:38;11.80;99.90
7044;DHT22;57890;52.36301240;9.76001620;2022-12-29T09:44:13;11.80;99.90
7044;DHT22;57890;52.36301240;9.76001620;2022-12-29T09:46:45;11.90;99.90
7044;DHT22;57890;52.36301240;9.76001620;2022-12-29T09:49:23;11.90;99.90
7044;DHT22;57890;52.36301240;9.76001620;2022-12-29T09:51:52;11.90;99.90
7044;DHT22;57890;52.36301240;9.76001620;2022-12-29T09:54:39;11.90;99.90
7044;DHT22;57890;52.36301240;9.76001620;2022-12-29T09:57:15;11.90;99.90
7044;DHT22;57890;52.36301240;9.76001620;2022-12-29T09:59:45;11.80;99.90
7044;DHT22;57890;52.36301240;9.76001620;2022-12-29T10:02:23;11.80;99.90
7044;DHT22;57890;52.36301240;9.76001620;2022-12-29T10:04:53;11.80;99.90
7044;DHT22;57890;52.36301240;9.76001620;2022-12-29T10:07:27;11.80;99.90
7044;DHT22;57890;52.36301240;9.76001620;2022-12-29T10:10:07;11.80;99.90
7044;DHT22;57890;52.36301240;9.76001620;2022-12-29T10:12:51;11.80;99.90
7044;DHT22;57890;52.36301240;9.76001620;2022-12-29T10:15:30;11.80;99.90
7044;DHT22;57890;52.36301240;9.76001620;2022-12-29T10:18:06;11.80;99.90
7044;DHT22;57890;52.36301240;9.76001620;2022-12-29T10:20:47;11.80;99.90
7044;DHT22;57890;52.36301240;9.76001620;2022-12-29T10:23:25;11.80;99.90
7044;DHT22;57890;52.36301240;9.76001620;2022-12-29T10:25:56;11.80;99.90
7044;DHT22;57890;52.36301240;9.76001620;2022-12-29T10:28:34;11.80;99.90
7044;DHT22;57890;52.36301240;9.76001620;2022-12-29T10:31:04;11.80;99.90
7044;DHT22;57890;52.36301240;9.76001620;2022-12-29T10:33:35;11.80;99.90
7044;DHT22;57890;52.36301240;9.76001620;2022-12-29T10:36:04;11.80;99.90
7044;DHT22;57890;52.36301240;9.76001620;2022-12-29T10:38:42;11.80;99.90
7044;DHT22;57890;52.36301240;9.76001620;2022-12-29T10:41:17;11.80;99.90
7044;DHT22;57890;52.36301240;9.76001620;2022-12-29T10:43:46;11.90;99.90
7044;DHT22;57890;52.36301240;9.76001620;2022-12-29T10:46:17;11.80;99.90
7044;DHT22;57890;52.36301240;9.76001620;2022-12-29T10:48:46;11.80;99.90
7044;DHT22;57890;52.36301240;9.76001620;2022-12-29T10:51:20;11.90;99.90
7044;DHT22;57890;52.36301240;9.76001620;2022-12-29T10:53:50;11.90;99.90
7044;DHT22;57890;52.36301240;9.76001620;2022-12-29T10:56:25;11.90;99.90
7044;DHT22;57890;52.36301240;9.76001620;2022-12-29T10:58:55;11.90;99.90
7044;DHT22;57890;52.36301240;9.76001620;2022-12-29T11:01:30;11.90;99.90
7044;DHT22;57890;52.36301240;9.76001620;2022-12-29T11:04:02;12.00;99.90
7044;DHT22;57890;52.36301240;9.76001620;2022-12-29T11:06:30;12.00;99.90
7044;DHT22;57890;52.36301240;9.76001620;2022-12-29T11:09:01;12.00;99.90
7044;DHT22;57890;52.36301240;9.76001620;2022-12-29T11:11:34;12.00;99.90
7044;DHT22;57890;52.36301240;9.76001620;2022-12-29T11:14:08;12.00;99.90
7044;DHT22;57890;52.36301240;9.76001620;2022-12-29T11:16:36;12.00;99.90
7044;DHT22;57890;52.36301240;9.76001620;2022-12-29T11:19:03;12.10;99.90
7044;DHT22;57890;52.36301240;9.76001620;2022-12-29T11:21:33;12.00;99.90
7044;DHT22;57890;52.36301240;9.76001620;2022-12-29T11:24:18;12.00;99.90
7044;DHT22;57890;52.36301240;9.76001620;2022-12-29T11:26:47;12.10;99.90
7044;DHT22;57890;52.36301240;9.76001620;2022-12-29T11:29:24;12.10;99.90
7044;DHT22;57890;52.36301240;9.76001620;2022-12-29T11:31:53;12.10;99.90
7044;DHT22;57890;52.36301240;9.76001620;2022-12-29T11:34:22;12.10;99.90
7044;DHT22;57890;52.36301240;9.76001620;2022-12-29T11:36:52;12.20;99.90
7044;DHT22;57890;52.36301240;9.76001620;2022-12-29T11:39:26;12.20;99.90
7044;DHT22;57890;52.36301240;9.76001620;2022-12-29T11:41:55;12.30;99.90
7044;DHT22;57890;52.36301240;9.76001620;2022-12-29T11:44:23;12.30;99.90
7044;DHT22;57890;52.36301240;9.76001620;2022-12-29T11:46:51;12.30;99.90
7044;DHT22;57890;52.36301240;9.76001620;2022-12-29T11:49:20;12.30;99.90
7044;DHT22;57890;52.36301240;9.76001620;2022-12-29T11:51:49;12.40;99.90
7044;DHT22;57890;52.36301240;9.76001620;2022-12-29T11:54:21;12.40;99.90
7044;DHT22;57890;52.36301240;9.76001620;2022-12-29T11:56:50;12.50;99.90
7044;DHT22;57890;52.36301240;9.76001620;2022-12-29T11:59:36;12.50;99.90
7044;DHT22;57890;52.36301240;9.76001620;2022-12-29T12:02:17;12.50;99.90
7044;DHT22;57890;52.36301240;9.76001620;2022-12-29T12:04:49;12.60;99.90
7044;DHT22;57890;52.36301240;9.76001620;2022-12-29T12:07:20;12.60;99.90
7044;DHT22;57890;52.36301240;9.76001620;2022-12-29T12:09:51;12.60;99.90
7044;DHT22;57890;52.36301240;9.76001620;2022-12-29T12:12:24;12.70;99.90
7044;DHT22;57890;52.36301240;9.76001620;2022-12-29T12:14:57;12.70;99.90
7044;DHT22;57890;52.36301240;9.76001620;2022-12-29T12:17:43;12.70;99.90
7044;DHT22;57890;52.36301240;9.76001620;2022-12-29T12:20:18;12.70;99.90
7044;DHT22;57890;52.36301240;9.76001620;2022-12-29T12:22:56;12.70;99.90
7044;DHT22;57890;52.36301240;9.76001620;2022-12-29T12:25:30;12.60;99.90
7044;DHT22;57890;52.36301240;9.76001620;2022-12-29T12:28:09;12.60;99.90
7044;DHT22;57890;52.36301240;9.76001620;2022-12-29T12:30:43;12.60;99.90
7044;DHT22;57890;52.36301240;9.76001620;2022-12-29T12:33:16;12.60;99.90
7044;DHT22;57890;52.36301240;9.76001620;2022-12-29T12:35:57;12.50;99.90
7044;DHT22;57890;52.36301240;9.76001620;2022-12-29T12:38:38;12.50;99.90
7044;DHT22;57890;52.36301240;9.76001620;2022-12-29T12:41:10;12.50;99.90
7044;DHT22;57890;52.36301240;9.76001620;2022-12-29T12:43:41;12.50;99.90
7044;DHT22;57890;52.36301240;9.76001620;2022-12-29T12:46:37;12.50;99.90
7044;DHT22;57890;52.36301240;9.76001620;2022-12-29T12:49:45;12.50;99.90
7044;DHT22;57890;52.36301240;9.76001620;2022-12-29T12:52:25;12.40;99.90
7044;DHT22;57890;52.36301240;9.76001620;2022-12-29T12:55:22;12.40;99.90
7044;DHT22;57890;52.36301240;9.76001620;2022-12-29T12:57:56;12.40;99.90
7044;DHT22;57890;52.36301240;9.76001620;2022-12-29T13:00:28;12.30;99.90
7044;DHT22;57890;52.36301240;9.76001620;2022-12-29T13:03:05;12.40;99.90
7044;DHT22;57890;52.36301240;9.76001620;2022-12-29T13:05:57;12.30;99.90
7044;DHT22;57890;52.36301240;9.76001620;2022-12-29T13:11:31;12.50;99.90
7044;DHT22;57890;52.36301240;9.76001620;2022-12-29T13:14:13;12.60;99.90
7044;DHT22;57890;52.36301240;9.76001620;2022-12-29T13:16:51;12.60;99.90
7044;DHT22;57890;52.36301240;9.76001620;2022-12-29T13:19:27;12.60;99.90
7044;DHT22;57890;52.36301240;9.76001620;2022-12-29T13:22:04;12.60;99.90
7044;DHT22;57890;52.36301240;9.76001620;2022-12-29T13:24:40;12.60;99.90
7044;DHT22;57890;52.36301240;9.76001620;2022-12-29T13:27:16;12.60;99.90
7044;DHT22;57890;52.36301240;9.76001620;2022-12-29T13:29:50;12.50;99.90
7044;DHT22;57890;52.36301240;9.76001620;2022-12-29T13:32:29;12.50;99.90
7044;DHT22;57890;52.36301240;9.76001620;2022-12-29T13:35:12;12.50;99.90
7044;DHT22;57890;52.36301240;9.76001620;2022-12-29T13:37:48;12.50;99.90
7044;DHT22;57890;52.36301240;9.76001620;2022-12-29T13:40:19;12.40;99.90
7044;DHT22;57890;52.36301240;9.76001620;2022-12-29T13:42:49;12.30;99.90
7044;DHT22;57890;52.36301240;9.76001620;2022-12-29T13:45:19;12.40;99.90
7044;DHT22;57890;52.36301240;9.76001620;2022-12-29T13:47:49;12.40;99.90
7044;DHT22;57890;52.36301240;9.76001620;2022-12-29T13:50:21;12.40;99.90
7044;DHT22;57890;52.36301240;9.76001620;2022-12-29T13:52:54;12.40;99.90
7044;DHT22;57890;52.36301240;9.76001620;2022-12-29T13:55:26;12.40;99.90
7044;DHT22;57890;52.36301240;9.76001620;2022-12-29T13:57:59;12.40;99.90
7044;DHT22;57890;52.36301240;9.76001620;2022-12-29T14:00:29;12.40;99.90
7044;DHT22;57890;52.36301240;9.76001620;2022-12-29T14:03:17;12.40;99.90
7044;DHT22;57890;52.36301240;9.76001620;2022-12-29T14:06:10;12.40;99.90